createdAt,value
2019-02-24T00:00:07.574Z,-7.41
2019-02-24T00:02:36.248Z,-7.44
2019-02-24T00:05:06.418Z,-7.47
2019-02-24T00:07:35.093Z,-7.48
2019-02-24T00:10:04.454Z,-7.51
2019-02-24T00:12:33.127Z,-7.36
2019-02-24T00:15:01.786Z,-7.32
2019-02-24T00:17:30.512Z,-7.26
2019-02-24T00:19:59.168Z,-7.17
2019-02-24T00:22:27.822Z,-7.21
2019-02-24T00:24:57.396Z,-7.41
2019-02-24T00:27:26.059Z,-7.20
2019-02-24T00:29:54.720Z,-7.09
2019-02-24T00:32:23.385Z,-7.25
2019-02-24T00:34:52.110Z,-7.34
2019-02-24T00:37:20.810Z,-7.34
2019-02-24T00:39:49.447Z,-7.48
2019-02-24T00:42:18.127Z,-7.48
2019-02-24T00:44:46.779Z,-7.30
2019-02-24T00:47:15.451Z,-7.19
2019-02-24T00:49:44.114Z,-7.25
2019-02-24T00:52:12.783Z,-7.28
2019-02-24T00:54:41.448Z,-7.25
2019-02-24T00:57:10.108Z,-7.39
2019-02-24T00:59:38.772Z,-7.47
2019-02-24T01:02:07.432Z,-7.34
2019-02-24T01:04:36.128Z,-7.32
2019-02-24T01:07:04.793Z,-7.22
2019-02-24T01:09:33.458Z,-7.35
2019-02-24T01:12:02.124Z,-7.38
2019-02-24T01:14:30.786Z,-7.46
2019-02-24T01:16:59.473Z,-7.53
2019-02-24T01:19:28.134Z,-7.61
2019-02-24T01:21:56.798Z,-7.71
2019-02-24T01:24:25.505Z,-7.66
2019-02-24T01:26:54.187Z,-7.63
2019-02-24T01:29:22.837Z,-7.53
2019-02-24T01:31:51.506Z,-7.60
2019-02-24T01:34:20.185Z,-7.72
2019-02-24T01:36:48.871Z,-7.71
2019-02-24T01:39:17.549Z,-7.77
2019-02-24T01:41:46.286Z,-7.81
2019-02-24T01:44:14.951Z,-7.89
2019-02-24T01:46:43.660Z,-7.73
2019-02-24T01:49:12.357Z,-7.76
2019-02-24T01:51:41.022Z,-7.82
2019-02-24T01:54:09.694Z,-7.77
2019-02-24T01:56:38.373Z,-7.76
2019-02-24T01:59:07.045Z,-7.61
2019-02-24T02:01:35.703Z,-7.39
2019-02-24T02:04:04.388Z,-7.38
2019-02-24T02:06:33.153Z,-7.33
2019-02-24T02:09:01.819Z,-7.43
2019-02-24T02:11:30.507Z,-7.48
2019-02-24T02:13:59.237Z,-7.39
2019-02-24T02:16:27.892Z,-7.24
2019-02-24T02:18:56.554Z,-7.34
2019-02-24T02:21:25.230Z,-7.42
2019-02-24T02:23:53.892Z,-7.41
2019-02-24T02:26:22.572Z,-7.37
2019-02-24T02:28:51.255Z,-7.24
2019-02-24T02:31:19.934Z,-7.17
2019-02-24T02:33:48.610Z,-7.14
2019-02-24T02:36:17.259Z,-7.17
2019-02-24T02:38:45.948Z,-7.23
2019-02-24T02:41:14.610Z,-7.31
2019-02-24T02:43:43.274Z,-7.29
2019-02-24T02:46:11.934Z,-7.32
2019-02-24T02:48:40.628Z,-7.29
2019-02-24T02:51:09.573Z,-7.36
2019-02-24T02:53:38.299Z,-7.47
2019-02-24T02:56:06.954Z,-7.45
2019-02-24T02:58:35.623Z,-7.51
2019-02-24T03:01:04.289Z,-7.37
2019-02-24T03:03:32.961Z,-7.37
2019-02-24T03:06:03.203Z,-7.43
2019-02-24T03:08:48.518Z,-7.36
2019-02-24T03:11:17.494Z,-7.44
2019-02-24T03:13:46.171Z,-7.45
2019-02-24T03:16:16.413Z,-7.39
2019-02-24T03:18:45.118Z,-7.32
2019-02-24T03:21:13.770Z,-7.35
2019-02-24T03:23:42.445Z,-7.39
2019-02-24T03:26:11.101Z,-7.32
2019-02-24T03:28:39.775Z,-7.42
2019-02-24T03:31:08.497Z,-7.52
2019-02-24T03:33:37.139Z,-7.50
2019-02-24T03:36:05.802Z,-7.47
2019-02-24T03:38:34.462Z,-7.41
2019-02-24T03:41:03.127Z,-7.35
2019-02-24T03:43:31.839Z,-7.38
2019-02-24T03:46:00.506Z,-7.40
2019-02-24T03:48:29.179Z,-7.36
2019-02-24T03:50:57.842Z,-7.46
2019-02-24T03:53:26.567Z,-7.43
2019-02-24T03:55:57.543Z,-7.42
2019-02-24T03:58:25.710Z,-7.42
2019-02-24T04:00:54.376Z,-7.40
2019-02-24T04:03:23.049Z,-7.36
2019-02-24T04:05:51.734Z,-7.40
2019-02-24T04:08:20.402Z,-7.38
2019-02-24T04:10:49.100Z,-7.40
2019-02-24T04:13:17.777Z,-7.47
2019-02-24T04:15:46.584Z,-7.47
2019-02-24T04:18:15.250Z,-7.41
2019-02-24T04:20:43.921Z,-7.34
2019-02-24T04:23:12.597Z,-7.44
2019-02-24T04:25:41.261Z,-7.47
2019-02-24T04:28:09.948Z,-7.47
2019-02-24T04:30:38.613Z,-7.43
2019-02-24T04:33:07.287Z,-7.46
2019-02-24T04:35:35.933Z,-7.52
2019-02-24T04:38:04.699Z,-7.60
2019-02-24T04:40:33.384Z,-7.54
2019-02-24T04:43:02.043Z,-7.40
2019-02-24T04:45:30.731Z,-7.29
2019-02-24T04:47:59.393Z,-7.30
2019-02-24T04:50:28.062Z,-7.13
2019-02-24T04:52:56.751Z,-7.11
2019-02-24T04:55:25.412Z,-7.15
2019-02-24T04:57:54.086Z,-7.31
2019-02-24T05:00:22.753Z,-7.48
2019-02-24T05:02:51.410Z,-7.52
2019-02-24T05:05:20.077Z,-7.60
2019-02-24T05:07:48.825Z,-7.74
2019-02-24T05:10:17.499Z,-7.80
2019-02-24T05:12:46.170Z,-7.89
2019-02-24T05:15:14.842Z,-7.87
2019-02-24T05:17:43.510Z,-7.85
2019-02-24T05:20:12.173Z,-7.75
2019-02-24T05:22:40.837Z,-7.85
2019-02-24T05:25:09.513Z,-7.75
2019-02-24T05:27:38.180Z,-7.60
2019-02-24T05:30:07.114Z,-7.54
2019-02-24T05:32:35.762Z,-7.46
2019-02-24T05:35:05.029Z,-7.44
2019-02-24T05:37:33.689Z,-7.34
2019-02-24T05:40:02.351Z,-7.31
2019-02-24T05:42:31.023Z,-7.21
2019-02-24T05:44:59.761Z,-7.03
2019-02-24T05:47:28.408Z,-6.96
2019-02-24T05:49:57.074Z,-7.13
2019-02-24T05:52:25.741Z,-6.82
2019-02-24T05:54:54.400Z,-6.48
2019-02-24T05:57:23.075Z,-6.67
2019-02-24T05:59:55.380Z,-6.87
2019-02-24T06:02:22.183Z,-6.95
2019-02-24T06:04:50.847Z,-7.04
2019-02-24T06:07:19.621Z,-7.09
2019-02-24T06:09:48.290Z,-7.07
2019-02-24T06:12:16.970Z,-7.04
2019-02-24T06:14:45.664Z,-6.93
2019-02-24T06:17:14.329Z,-6.79
2019-02-24T06:19:42.994Z,-6.48
2019-02-24T06:22:11.665Z,-6.26
2019-02-24T06:24:40.335Z,-5.97
2019-02-24T06:27:09.024Z,-5.77
2019-02-24T06:29:37.744Z,-5.82
2019-02-24T06:32:06.402Z,-5.78
2019-02-24T06:34:35.111Z,-5.77
2019-02-24T06:37:03.788Z,-5.58
2019-02-24T06:39:32.464Z,-5.45
2019-02-24T06:42:01.144Z,-5.59
2019-02-24T06:44:29.798Z,-5.72
2019-02-24T06:46:58.568Z,-5.71
2019-02-24T06:49:27.255Z,-5.64
2019-02-24T06:51:56.127Z,-5.48
2019-02-24T06:54:24.758Z,-5.29
2019-02-24T06:56:53.429Z,-5.21
2019-02-24T06:59:22.103Z,-5.15
2019-02-24T07:01:50.752Z,-5.04
2019-02-24T07:04:19.427Z,-5.01
2019-02-24T07:06:48.107Z,-4.93
2019-02-24T07:09:16.769Z,-4.79
2019-02-24T07:11:45.440Z,-4.69
2019-02-24T07:14:14.120Z,-4.63
2019-02-24T07:16:42.843Z,-4.64
2019-02-24T07:19:11.553Z,-3.40
2019-02-24T07:21:40.194Z,-0.83
2019-02-24T07:24:08.906Z,-0.99
2019-02-24T07:26:37.555Z,-2.07
2019-02-24T07:29:06.219Z,-2.62
2019-02-24T07:31:34.880Z,-2.83
2019-02-24T07:34:03.548Z,-2.97
2019-02-24T07:36:32.229Z,-3.07
2019-02-24T07:39:00.955Z,-1.46
2019-02-24T07:41:29.625Z,-0.20
2019-02-24T07:43:58.285Z,1.04
2019-02-24T07:46:26.952Z,2.20
2019-02-24T07:48:55.658Z,2.54
2019-02-24T07:51:24.335Z,5.03
2019-02-24T07:53:53.014Z,5.76
2019-02-24T07:56:21.681Z,6.93
2019-02-24T07:58:50.372Z,6.97
2019-02-24T08:01:19.038Z,7.51
2019-02-24T08:03:47.699Z,8.77
2019-02-24T08:06:16.372Z,6.17
2019-02-24T08:08:45.033Z,3.59
2019-02-24T08:11:13.685Z,1.91
2019-02-24T08:13:44.048Z,0.17
2019-02-24T08:16:12.808Z,-0.63
2019-02-24T08:18:49.254Z,-1.56
2019-02-24T08:21:11.863Z,-1.91
2019-02-24T08:23:40.564Z,-2.13
2019-02-24T08:26:09.222Z,-2.50
2019-02-24T08:28:37.882Z,-2.58
2019-02-24T08:31:06.547Z,-2.59
2019-02-24T08:33:35.220Z,-2.62
2019-02-24T08:36:03.893Z,-2.78
2019-02-24T08:38:32.559Z,-2.72
2019-02-24T08:41:01.230Z,-0.43
2019-02-24T08:43:29.933Z,3.75
2019-02-24T08:45:58.571Z,7.29
2019-02-24T08:48:27.259Z,10.44
2019-02-24T08:50:55.923Z,11.30
2019-02-24T08:53:24.650Z,12.20
2019-02-24T08:55:53.319Z,12.95
2019-02-24T08:58:21.979Z,10.47
2019-02-24T09:00:51.382Z,8.41
2019-02-24T09:03:20.198Z,11.28
2019-02-24T09:05:48.853Z,8.98
2019-02-24T09:08:17.523Z,7.63
2019-02-24T09:10:46.217Z,8.17
2019-02-24T09:13:14.853Z,11.03
2019-02-24T09:15:43.524Z,11.11
2019-02-24T09:18:12.184Z,12.16
2019-02-24T09:20:40.925Z,13.48
2019-02-24T09:23:09.579Z,12.74
2019-02-24T09:25:38.256Z,13.53
2019-02-24T09:28:06.928Z,15.18
2019-02-24T09:30:35.591Z,13.41
2019-02-24T09:33:04.296Z,12.29
2019-02-24T09:35:32.953Z,13.72
2019-02-24T09:38:01.628Z,14.31
2019-02-24T09:40:30.298Z,15.33
2019-02-24T09:42:58.954Z,13.84
2019-02-24T09:45:27.626Z,14.35
2019-02-24T09:47:56.309Z,15.74
2019-02-24T09:50:24.996Z,16.56
2019-02-24T09:52:53.668Z,16.25
2019-02-24T09:55:22.323Z,14.54
2019-02-24T09:57:50.983Z,17.32
2019-02-24T10:00:21.862Z,17.88
2019-02-24T10:02:50.050Z,19.12
2019-02-24T10:05:18.789Z,19.01
2019-02-24T10:07:47.464Z,15.63
2019-02-24T10:10:16.129Z,12.17
2019-02-24T10:12:44.808Z,12.11
2019-02-24T10:15:15.142Z,13.54
2019-02-24T10:17:43.820Z,15.36
2019-02-24T10:20:13.095Z,15.47
2019-02-24T10:22:41.754Z,15.58
2019-02-24T10:25:10.746Z,17.49
2019-02-24T10:27:39.389Z,17.27
2019-02-24T10:30:13.650Z,15.53
2019-02-24T10:32:42.306Z,14.34
2019-02-24T10:35:10.988Z,16.23
2019-02-24T10:37:39.655Z,18.60
2019-02-24T10:40:16.182Z,20.29
2019-02-24T10:42:44.879Z,19.66
2019-02-24T10:45:18.043Z,18.63
2019-02-24T10:47:46.731Z,19.91
2019-02-24T10:50:16.298Z,20.79
2019-02-24T10:52:44.960Z,19.21
2019-02-24T10:55:13.736Z,21.83
2019-02-24T10:57:42.396Z,22.18
2019-02-24T11:00:21.258Z,21.01
2019-02-24T11:02:49.936Z,22.33
2019-02-24T11:05:18.607Z,19.70
2019-02-24T11:07:47.289Z,20.10
2019-02-24T11:10:15.946Z,22.28
2019-02-24T11:12:44.615Z,22.75
2019-02-24T11:15:13.883Z,21.22
2019-02-24T11:17:42.548Z,19.73
2019-02-24T11:20:13.415Z,20.98
2019-02-24T11:22:42.074Z,22.63
2019-02-24T11:25:11.693Z,19.62
2019-02-24T11:27:40.407Z,20.53
2019-02-24T11:30:14.266Z,21.14
2019-02-24T11:32:43.028Z,19.99
2019-02-24T11:35:12.402Z,19.12
2019-02-24T11:37:41.066Z,19.62
2019-02-24T11:40:17.537Z,15.73
2019-02-24T11:42:46.278Z,17.64
2019-02-24T11:45:14.918Z,16.86
2019-02-24T11:47:43.585Z,14.35
2019-02-24T11:50:13.043Z,15.26
2019-02-24T11:52:41.754Z,15.91
2019-02-24T11:55:11.079Z,15.77
2019-02-24T11:57:39.834Z,16.07
2019-02-24T12:00:11.754Z,16.68
2019-02-24T12:02:41.802Z,16.95
2019-02-24T12:05:11.127Z,16.66
2019-02-24T12:07:39.812Z,14.40
2019-02-24T12:10:12.284Z,12.19
2019-02-24T12:12:40.943Z,10.97
2019-02-24T12:15:14.318Z,9.43
2019-02-24T12:17:43.105Z,7.71
2019-02-24T12:20:13.546Z,8.06
2019-02-24T12:22:42.205Z,8.19
2019-02-24T12:25:11.675Z,8.03
2019-02-24T12:27:40.329Z,7.98
2019-02-24T12:30:16.025Z,8.07
2019-02-24T12:32:44.693Z,8.50
2019-02-24T12:35:13.354Z,8.31
2019-02-24T12:37:42.025Z,7.81
2019-02-24T12:40:14.578Z,8.03
2019-02-24T12:42:43.242Z,7.34
2019-02-24T12:45:12.186Z,7.10
2019-02-24T12:47:40.844Z,6.54
2019-02-24T12:50:11.886Z,6.94
2019-02-24T12:52:40.544Z,7.22
2019-02-24T12:55:10.112Z,6.66
2019-02-24T12:57:39.069Z,6.90
2019-02-24T13:00:11.556Z,6.46
2019-02-24T13:02:40.213Z,6.43
2019-02-24T13:05:08.874Z,6.48
2019-02-24T13:07:37.533Z,6.37
2019-02-24T13:10:09.395Z,4.89
2019-02-24T13:12:38.081Z,5.06
2019-02-24T13:15:06.940Z,3.96
2019-02-24T13:17:35.605Z,2.54
2019-02-24T13:20:05.801Z,1.59
2019-02-24T13:22:34.595Z,1.50
2019-02-24T13:25:03.258Z,1.37
2019-02-24T13:27:31.942Z,1.19
2019-02-24T13:30:00.607Z,1.34
2019-02-24T13:32:29.271Z,0.94
2019-02-24T13:34:57.959Z,0.91
2019-02-24T13:37:26.647Z,0.71
2019-02-24T13:39:55.309Z,0.63
2019-02-24T13:42:24.002Z,0.73
2019-02-24T13:44:52.704Z,0.86
2019-02-24T13:47:21.352Z,0.55
2019-02-24T13:49:50.022Z,0.84
2019-02-24T13:52:18.684Z,0.93
2019-02-24T13:54:47.339Z,0.55
2019-02-24T13:57:15.996Z,0.15
2019-02-24T13:59:44.655Z,0.01
2019-02-24T14:02:13.329Z,0.67
2019-02-24T14:04:42.028Z,0.54
2019-02-24T14:07:10.683Z,0.11
2019-02-24T14:09:39.371Z,-0.04
2019-02-24T14:12:08.041Z,0.25
2019-02-24T14:14:36.697Z,0.38
2019-02-24T14:17:05.369Z,0.28
2019-02-24T14:19:34.036Z,0.03
2019-02-24T14:22:02.720Z,-0.59
2019-02-24T14:24:31.379Z,-0.35
2019-02-24T14:27:00.078Z,-0.04
2019-02-24T14:29:28.746Z,-0.15
2019-02-24T14:31:57.446Z,-0.08
2019-02-24T14:34:26.106Z,-0.08
2019-02-24T14:36:54.786Z,-0.04
2019-02-24T14:39:23.450Z,-0.19
2019-02-24T14:41:52.130Z,-0.14
2019-02-24T14:44:20.786Z,-0.42
2019-02-24T14:46:49.472Z,-0.78
2019-02-24T14:49:18.143Z,-0.92
2019-02-24T14:51:46.828Z,-1.19
2019-02-24T14:54:15.538Z,-1.11
2019-02-24T14:56:44.204Z,-1.05
2019-02-24T14:59:12.878Z,-1.15
2019-02-24T15:01:41.546Z,-1.50
2019-02-24T15:04:10.202Z,-1.54
2019-02-24T15:06:38.869Z,-1.34
2019-02-24T15:09:07.938Z,-1.34
2019-02-24T15:11:36.599Z,-1.52
2019-02-24T15:14:05.271Z,-1.61
2019-02-24T15:16:33.975Z,-1.63
2019-02-24T15:19:02.606Z,-1.76
2019-02-24T15:21:31.308Z,-1.89
2019-02-24T15:23:59.979Z,-1.95
2019-02-24T15:26:29.309Z,-1.82
2019-02-24T15:28:58.091Z,-1.67
2019-02-24T15:31:26.758Z,-1.69
2019-02-24T15:33:55.426Z,-1.83
2019-02-24T15:36:24.085Z,-1.90
2019-02-24T15:38:52.782Z,-1.98
2019-02-24T15:41:29.566Z,-2.03
2019-02-24T15:43:51.903Z,-2.10
2019-02-24T15:46:20.570Z,-2.18
2019-02-24T15:48:49.243Z,-2.17
2019-02-24T15:51:17.917Z,-2.27
2019-02-24T15:53:46.696Z,-2.21
2019-02-24T15:56:15.375Z,-2.26
2019-02-24T15:58:44.077Z,-2.30
2019-02-24T16:01:12.743Z,-2.21
2019-02-24T16:03:41.416Z,-2.16
2019-02-24T16:06:10.090Z,-2.25
2019-02-24T16:08:38.766Z,-2.38
2019-02-24T16:11:07.457Z,-2.41
2019-02-24T16:13:36.116Z,-2.50
2019-02-24T16:16:04.789Z,-2.56
2019-02-24T16:18:33.489Z,-2.68
2019-02-24T16:21:02.120Z,-2.70
2019-02-24T16:23:30.798Z,-2.65
2019-02-24T16:25:59.466Z,-2.75
2019-02-24T16:28:28.202Z,-2.82
2019-02-24T16:30:56.876Z,-3.00
2019-02-24T16:33:25.581Z,-2.93
2019-02-24T16:35:54.254Z,-2.91
2019-02-24T16:38:22.905Z,-2.78
2019-02-24T16:40:51.576Z,-2.79
2019-02-24T16:43:20.258Z,-2.75
2019-02-24T16:45:48.936Z,-2.75
2019-02-24T16:48:17.616Z,-2.77
2019-02-24T16:50:46.282Z,-2.76
2019-02-24T16:53:14.954Z,-2.75
2019-02-24T16:55:43.615Z,-2.86
2019-02-24T16:58:12.322Z,-2.92
2019-02-24T17:00:41.133Z,-2.86
2019-02-24T17:03:09.796Z,-2.86
2019-02-24T17:05:38.662Z,-2.97
2019-02-24T17:08:07.340Z,-3.10
2019-02-24T17:10:36.131Z,-3.05
2019-02-24T17:13:04.815Z,-3.14
2019-02-24T17:15:33.535Z,-3.29
2019-02-24T17:18:02.204Z,-3.41
2019-02-24T17:20:31.269Z,-3.42
2019-02-24T17:22:59.976Z,-3.53
2019-02-24T17:25:28.709Z,-3.80
2019-02-24T17:27:57.385Z,-3.73
2019-02-24T17:30:26.139Z,-3.73
2019-02-24T17:32:54.855Z,-3.76
2019-02-24T17:35:23.534Z,-3.79
2019-02-24T17:37:52.221Z,-3.88
2019-02-24T17:40:23.866Z,-3.86
2019-02-24T17:42:52.535Z,-3.93
2019-02-24T17:45:21.212Z,-3.93
2019-02-24T17:47:49.915Z,-3.93
2019-02-24T17:50:18.795Z,-3.89
2019-02-24T17:52:47.465Z,-3.88
2019-02-24T17:55:17.158Z,-3.93
2019-02-24T17:57:45.828Z,-3.82
2019-02-24T18:00:33.011Z,-3.70
2019-02-24T18:03:01.680Z,-3.54
2019-02-24T18:05:30.456Z,-3.42
2019-02-24T18:07:59.159Z,-3.46
2019-02-24T18:10:27.790Z,-3.38
2019-02-24T18:12:56.459Z,-3.47
2019-02-24T18:15:25.173Z,-3.44
2019-02-24T18:17:53.861Z,-3.35
2019-02-24T18:20:23.030Z,-3.29
2019-02-24T18:22:51.714Z,-3.33
2019-02-24T18:25:20.395Z,-3.42
2019-02-24T18:27:49.181Z,-3.52
2019-02-24T18:30:26.262Z,-3.51
2019-02-24T18:32:54.941Z,-3.55
2019-02-24T18:35:23.612Z,-3.58
2019-02-24T18:37:52.304Z,-3.46
2019-02-24T18:40:20.993Z,-3.26
2019-02-24T18:42:49.668Z,-3.24
2019-02-24T18:45:18.355Z,-3.38
2019-02-24T18:47:47.034Z,-3.31
2019-02-24T18:50:16.714Z,-3.25
2019-02-24T18:52:45.394Z,-3.32
2019-02-24T18:55:14.272Z,-3.31
2019-02-24T18:57:42.948Z,-3.14
2019-02-24T19:00:22.113Z,-3.24
2019-02-24T19:02:50.788Z,-3.26
2019-02-24T19:05:19.475Z,-3.45
2019-02-24T19:07:48.134Z,-3.53
2019-02-24T19:10:23.705Z,-3.69
2019-02-24T19:12:52.389Z,-3.70
2019-02-24T19:15:23.606Z,-3.75
2019-02-24T19:17:52.291Z,-3.80
2019-02-24T19:20:22.184Z,-3.81
2019-02-24T19:22:50.955Z,-3.63
2019-02-24T19:25:19.616Z,-3.47
2019-02-24T19:27:48.301Z,-3.35
2019-02-24T19:30:20.642Z,-3.44
2019-02-24T19:32:49.336Z,-3.51
2019-02-24T19:35:19.417Z,-3.36
2019-02-24T19:37:48.104Z,-3.50
2019-02-24T19:40:21.780Z,-3.56
2019-02-24T19:42:50.464Z,-3.65
2019-02-24T19:45:20.955Z,-3.70
2019-02-24T19:47:49.727Z,-3.77
2019-02-24T19:50:18.822Z,-3.85
2019-02-24T19:52:47.502Z,-3.91
2019-02-24T19:55:17.097Z,-3.86
2019-02-24T19:57:45.827Z,-3.73
2019-02-24T20:00:19.995Z,-3.61
2019-02-24T20:02:48.661Z,-3.45
2019-02-24T20:05:17.355Z,-3.25
2019-02-24T20:07:46.042Z,-3.25
2019-02-24T20:10:26.602Z,-3.12
2019-02-24T20:12:55.276Z,-3.19
2019-02-24T20:15:23.944Z,-3.38
2019-02-24T20:17:52.663Z,-3.39
2019-02-24T20:20:21.278Z,-3.35
2019-02-24T20:22:50.012Z,-3.40
2019-02-24T20:25:22.757Z,-3.44
2019-02-24T20:27:51.430Z,-3.58
2019-02-24T20:30:23.031Z,-3.63
2019-02-24T20:32:51.707Z,-3.71
2019-02-24T20:35:20.496Z,-3.80
2019-02-24T20:37:49.207Z,-3.86
2019-02-24T20:40:17.881Z,-3.81
2019-02-24T20:42:46.558Z,-3.85
2019-02-24T20:45:17.440Z,-3.92
2019-02-24T20:47:46.213Z,-4.05
2019-02-24T20:50:17.461Z,-4.10
2019-02-24T20:52:46.133Z,-4.25
2019-02-24T20:55:14.839Z,-4.32
2019-02-24T20:57:43.525Z,-4.41
2019-02-24T21:00:44.211Z,-4.42
2019-02-24T21:03:12.883Z,-4.46
2019-02-24T21:05:41.561Z,-4.20
2019-02-24T21:08:10.246Z,-4.08
2019-02-24T21:10:38.919Z,-3.97
2019-02-24T21:13:07.594Z,-4.12
2019-02-24T21:15:36.271Z,-4.33
2019-02-24T21:18:05.245Z,-4.39
2019-02-24T21:20:34.699Z,-4.39
2019-02-24T21:23:03.364Z,-4.55
2019-02-24T21:25:32.058Z,-4.65
2019-02-24T21:28:00.730Z,-4.69
2019-02-24T21:30:29.418Z,-4.73
2019-02-24T21:32:58.177Z,-4.63
2019-02-24T21:35:26.945Z,-4.63
2019-02-24T21:37:55.625Z,-4.55
2019-02-24T21:40:24.306Z,-4.41
2019-02-24T21:42:52.974Z,-4.29
2019-02-24T21:45:26.378Z,-4.35
2019-02-24T21:47:55.042Z,-4.44
2019-02-24T21:50:23.715Z,-4.46
2019-02-24T21:52:52.496Z,-4.49
2019-02-24T21:55:21.191Z,-4.71
2019-02-24T21:57:49.857Z,-4.87
2019-02-24T22:00:26.661Z,-4.99
2019-02-24T22:02:55.328Z,-5.14
2019-02-24T22:05:24.000Z,-5.27
2019-02-24T22:07:52.684Z,-5.41
2019-02-24T22:10:21.354Z,-5.50
2019-02-24T22:12:50.027Z,-5.70
2019-02-24T22:15:21.335Z,-5.84
2019-02-24T22:17:50.017Z,-5.95
2019-02-24T22:20:18.709Z,-5.95
2019-02-24T22:22:47.414Z,-6.13
2019-02-24T22:25:16.393Z,-5.80
2019-02-24T22:27:45.165Z,-5.93
2019-02-24T22:30:16.020Z,-6.08
2019-02-24T22:32:44.805Z,-6.11
2019-02-24T22:35:13.488Z,-6.17
2019-02-24T22:37:42.171Z,-6.19
2019-02-24T22:40:12.437Z,-6.18
2019-02-24T22:42:42.018Z,-6.33
2019-02-24T22:45:21.443Z,-6.31
2019-02-24T22:47:50.243Z,-6.40
2019-02-24T22:50:18.931Z,-6.43
2019-02-24T22:52:47.613Z,-6.51
2019-02-24T22:55:18.373Z,-6.52
2019-02-24T22:57:47.145Z,-6.60
2019-02-24T23:00:36.822Z,-6.66
2019-02-24T23:03:05.905Z,-6.67
2019-02-24T23:05:34.581Z,-6.69
2019-02-24T23:08:03.259Z,-6.67
2019-02-24T23:10:31.969Z,-6.74
2019-02-24T23:13:00.640Z,-6.72
2019-02-24T23:15:29.314Z,-6.89
2019-02-24T23:17:57.988Z,-6.75
2019-02-24T23:20:26.782Z,-6.64
2019-02-24T23:22:55.460Z,-6.64
2019-02-24T23:25:24.126Z,-6.71
2019-02-24T23:27:52.796Z,-6.71
2019-02-24T23:30:21.484Z,-6.68
2019-02-24T23:32:50.151Z,-6.67
2019-02-24T23:35:18.835Z,-6.56
2019-02-24T23:37:47.520Z,-6.41
2019-02-24T23:40:16.235Z,-6.26
2019-02-24T23:42:44.934Z,-6.40
2019-02-24T23:45:13.719Z,-6.59
2019-02-24T23:47:42.396Z,-6.72
2019-02-24T23:50:12.389Z,-6.78
2019-02-24T23:52:41.061Z,-6.92
2019-02-24T23:55:10.937Z,-6.99
2019-02-24T23:57:39.628Z,-7.05
